createdAt,value
2023-05-10T00:00:34.197Z,2.33
2023-05-10T00:05:35.657Z,2.60
2023-05-10T00:10:37.141Z,2.42
2023-05-10T00:15:38.625Z,2.50
2023-05-10T00:20:40.266Z,2.60
2023-05-10T00:25:41.821Z,2.63
2023-05-10T00:30:43.271Z,2.95
2023-05-10T00:35:44.710Z,3.00
2023-05-10T00:40:46.235Z,3.00
2023-05-10T00:45:55.889Z,3.05
2023-05-10T00:50:57.417Z,3.55
2023-05-10T00:55:58.925Z,2.97
2023-05-10T01:01:02.152Z,3.40
2023-05-10T01:06:03.841Z,3.33
2023-05-10T01:11:05.472Z,3.30
2023-05-10T01:16:07.421Z,3.72
2023-05-10T01:21:34.331Z,4.15
2023-05-10T01:27:02.874Z,3.08
2023-05-10T01:32:04.262Z,3.60
2023-05-10T01:37:11.972Z,3.90
2023-05-10T01:42:26.572Z,3.53
2023-05-10T01:47:41.249Z,3.40
2023-05-10T01:52:45.580Z,3.38
2023-05-10T01:57:51.944Z,3.87
2023-05-10T02:02:55.152Z,4.28
2023-05-10T02:07:57.911Z,3.78
2023-05-10T02:13:00.353Z,3.90
2023-05-10T02:18:03.976Z,4.00
2023-05-10T02:23:06.897Z,3.70
2023-05-10T02:28:09.422Z,3.80
2023-05-10T02:33:12.563Z,3.85
2023-05-10T02:38:15.804Z,4.28
2023-05-10T02:43:19.248Z,3.80
2023-05-10T02:48:20.740Z,3.80
2023-05-10T02:53:31.205Z,4.00
2023-05-10T02:58:32.701Z,4.45
2023-05-10T03:03:34.350Z,3.78
2023-05-10T03:08:36.253Z,4.72
2023-05-10T03:14:17.304Z,4.45
2023-05-10T03:19:25.170Z,4.32
2023-05-10T03:24:28.955Z,4.45
2023-05-10T03:29:34.410Z,3.88
2023-05-10T03:34:42.938Z,4.50
2023-05-10T03:39:44.684Z,4.78
2023-05-10T03:44:46.405Z,4.32
2023-05-10T03:49:47.938Z,4.43
2023-05-10T03:54:49.561Z,4.13
2023-05-10T03:59:51.023Z,4.32
2023-05-10T04:04:52.487Z,4.70
2023-05-10T04:09:54.425Z,4.90
2023-05-10T04:14:57.399Z,4.20
2023-05-10T04:19:58.847Z,4.35
2023-05-10T04:25:00.450Z,4.35
2023-05-10T04:30:02.330Z,4.57
2023-05-10T04:35:03.949Z,4.70
2023-05-10T04:40:06.156Z,4.47
2023-05-10T04:45:08.027Z,4.47
2023-05-10T04:50:09.733Z,4.38
2023-05-10T04:55:11.204Z,4.88
2023-05-10T05:00:13.096Z,4.25
2023-05-10T05:05:14.905Z,4.47
2023-05-10T05:10:16.499Z,4.65
2023-05-10T05:15:18.115Z,4.55
2023-05-10T05:20:19.811Z,4.32
2023-05-10T05:25:21.403Z,4.20
2023-05-10T05:30:22.861Z,4.50
2023-05-10T05:35:24.488Z,4.68
2023-05-10T05:40:26.024Z,4.20
2023-05-10T05:45:27.554Z,4.40
2023-05-10T05:50:29.014Z,4.70
2023-05-10T05:55:30.494Z,5.03
2023-05-10T06:00:32.044Z,4.50
2023-05-10T06:05:33.552Z,4.38
2023-05-10T06:10:35.073Z,5.00
2023-05-10T06:15:36.485Z,5.03
2023-05-10T06:20:37.978Z,4.35
2023-05-10T06:25:39.432Z,4.50
2023-05-10T06:30:40.841Z,5.00
2023-05-10T06:35:42.597Z,5.13
2023-05-10T06:40:44.577Z,4.93
2023-05-10T06:45:46.037Z,4.70
2023-05-10T06:50:47.510Z,5.57
2023-05-10T06:55:50.242Z,4.93
2023-05-10T07:00:51.692Z,5.00
2023-05-10T07:05:53.136Z,4.25
2023-05-10T07:10:59.881Z,4.60
2023-05-10T07:16:01.649Z,4.95
2023-05-10T07:21:03.219Z,4.38
2023-05-10T07:26:04.862Z,4.30
2023-05-10T07:31:06.335Z,4.38
2023-05-10T07:36:07.982Z,4.15
2023-05-10T07:41:09.384Z,4.45
2023-05-10T07:46:10.895Z,5.10
2023-05-10T07:51:12.513Z,4.78
2023-05-10T07:56:33.418Z,4.70
2023-05-10T08:01:35.509Z,5.15
2023-05-10T08:06:36.912Z,5.68
2023-05-10T08:11:38.346Z,5.22
2023-05-10T08:16:39.916Z,6.18
2023-05-10T08:21:41.391Z,11.43
2023-05-10T08:26:42.903Z,6.18
2023-05-10T08:31:44.342Z,15.05
2023-05-10T08:36:45.756Z,8.43
2023-05-10T08:41:48.873Z,6.78
2023-05-10T08:46:54.463Z,6.40
2023-05-10T08:56:58.628Z,21.27
2023-05-10T09:02:00.522Z,6.63
2023-05-10T09:07:03.153Z,7.00
2023-05-10T09:12:04.918Z,7.40
2023-05-10T09:17:06.735Z,6.95
2023-05-10T09:22:08.256Z,7.65
2023-05-10T09:27:09.676Z,8.38
2023-05-10T09:32:11.136Z,8.40
2023-05-10T09:37:12.566Z,9.20
2023-05-10T09:42:14.135Z,8.52
2023-05-10T09:47:19.104Z,8.82
2023-05-10T09:52:20.565Z,9.50
2023-05-10T09:57:23.162Z,10.05
2023-05-10T10:02:29.822Z,8.77
2023-05-10T10:07:31.445Z,9.45
2023-05-10T10:12:33.600Z,9.32
2023-05-10T10:17:37.266Z,9.30
2023-05-10T10:22:38.784Z,9.32
2023-05-10T10:27:52.339Z,9.48
2023-05-10T10:38:46.827Z,9.85
2023-05-10T10:43:48.266Z,10.82
2023-05-10T10:49:08.798Z,10.60
2023-05-10T10:54:11.537Z,10.45
2023-05-10T10:59:12.997Z,10.98
2023-05-10T11:04:14.507Z,11.43
2023-05-10T11:09:15.973Z,11.07
2023-05-10T11:14:21.668Z,10.45
2023-05-10T11:24:29.473Z,11.23
2023-05-10T11:29:30.886Z,9.65
2023-05-10T11:34:33.123Z,11.25
2023-05-10T11:39:34.561Z,10.57
2023-05-10T11:44:36.175Z,11.85
2023-05-10T11:49:37.635Z,11.68
2023-05-10T11:54:45.384Z,10.23
2023-05-10T11:59:47.596Z,11.50
2023-05-10T12:04:49.566Z,12.50
2023-05-10T12:10:07.074Z,12.10
2023-05-10T12:15:22.950Z,12.27
2023-05-10T12:25:33.084Z,11.68
2023-05-10T12:30:35.832Z,13.63
2023-05-10T12:35:54.828Z,13.50
2023-05-10T12:41:04.636Z,12.60
2023-05-10T12:46:17.437Z,12.65
2023-05-10T12:51:18.896Z,13.13
2023-05-10T12:56:20.322Z,12.45
2023-05-10T13:01:21.778Z,12.20
2023-05-10T13:06:23.567Z,13.38
2023-05-10T13:11:25.218Z,11.90
2023-05-10T13:16:26.695Z,11.95
2023-05-10T13:21:28.176Z,12.02
2023-05-10T13:26:29.716Z,13.27
2023-05-10T13:31:31.258Z,12.55
2023-05-10T13:36:32.726Z,12.70
2023-05-10T13:41:34.560Z,12.98
2023-05-10T13:46:36.048Z,13.27
2023-05-10T13:51:37.516Z,13.32
2023-05-10T13:56:38.941Z,13.00
2023-05-10T14:01:43.463Z,11.98
2023-05-10T14:06:44.945Z,12.90
2023-05-10T14:11:46.852Z,12.95
2023-05-10T14:16:48.318Z,11.18
2023-05-10T14:21:49.756Z,11.40
2023-05-10T14:26:51.188Z,12.63
2023-05-10T14:31:52.704Z,10.15
2023-05-10T14:36:54.209Z,11.07
2023-05-10T14:41:55.837Z,11.38
2023-05-10T14:46:57.290Z,10.07
2023-05-10T14:51:58.702Z,10.07
2023-05-10T14:57:00.280Z,10.30
2023-05-10T15:02:01.724Z,10.68
2023-05-10T15:07:03.772Z,10.77
2023-05-10T15:12:05.189Z,10.95
2023-05-10T15:17:07.211Z,13.57
2023-05-10T15:22:08.643Z,13.85
2023-05-10T15:27:10.113Z,14.07
2023-05-10T15:32:11.565Z,14.77
2023-05-10T15:37:13.000Z,13.75
2023-05-10T15:42:14.430Z,9.77
2023-05-10T15:47:15.823Z,8.40
2023-05-10T15:52:17.268Z,8.55
2023-05-10T15:57:18.691Z,9.50
2023-05-10T16:02:20.154Z,10.20
2023-05-10T16:07:21.614Z,10.65
2023-05-10T16:12:23.155Z,11.20
2023-05-10T16:17:24.813Z,11.02
2023-05-10T16:22:26.439Z,4.97
2023-05-10T16:27:27.888Z,4.03
2023-05-10T16:32:29.395Z,5.00
2023-05-10T16:37:30.843Z,3.53
2023-05-10T16:42:32.443Z,3.72
2023-05-10T16:47:34.129Z,4.30
2023-05-10T16:52:36.172Z,4.32
2023-05-10T16:57:37.891Z,4.07
2023-05-10T17:02:39.480Z,4.50
2023-05-10T17:07:41.019Z,3.90
2023-05-10T17:12:43.194Z,3.67
2023-05-10T17:17:44.705Z,3.50
2023-05-10T17:22:46.173Z,3.85
2023-05-10T17:27:47.656Z,4.47
2023-05-10T17:32:49.197Z,4.22
2023-05-10T17:52:17.884Z,3.55
2023-05-10T17:57:19.433Z,2.72
2023-05-10T18:02:20.904Z,2.35
2023-05-10T18:07:22.374Z,2.97
2023-05-10T18:12:24.292Z,2.25
2023-05-10T18:17:25.838Z,1.58
2023-05-10T18:22:27.261Z,1.25
2023-05-10T18:27:28.811Z,1.58
2023-05-10T18:32:30.318Z,1.70
2023-05-10T18:37:31.887Z,1.50
2023-05-10T18:42:33.320Z,1.67
2023-05-10T18:47:34.830Z,1.50
2023-05-10T18:52:36.334Z,1.40
2023-05-10T18:57:37.782Z,2.13
2023-05-10T19:02:40.074Z,2.17
2023-05-10T19:07:41.561Z,3.33
2023-05-10T19:12:43.020Z,3.13
2023-05-10T19:17:45.869Z,3.10
2023-05-10T19:23:02.068Z,2.95
2023-05-10T19:28:09.845Z,2.70
2023-05-10T19:33:11.282Z,3.05
2023-05-10T19:38:12.806Z,3.10
2023-05-10T19:43:14.270Z,3.60
2023-05-10T19:48:15.690Z,3.85
2023-05-10T19:53:17.319Z,3.88
2023-05-10T19:58:18.744Z,3.47
2023-05-10T20:03:20.256Z,3.90
2023-05-10T20:08:21.696Z,6.10
2023-05-10T20:13:23.300Z,5.53
2023-05-10T20:18:25.216Z,6.90
2023-05-10T20:23:26.846Z,7.85
2023-05-10T20:28:28.500Z,8.45
2023-05-10T20:33:29.945Z,7.30
2023-05-10T20:38:31.382Z,6.80
2023-05-10T20:43:32.879Z,7.25
2023-05-10T20:48:34.335Z,7.75
2023-05-10T20:53:35.816Z,6.85
2023-05-10T20:58:37.255Z,7.45
2023-05-10T21:03:38.740Z,5.78
2023-05-10T21:08:40.149Z,7.60
2023-05-10T21:13:41.594Z,6.35
2023-05-10T21:18:43.070Z,7.22
2023-05-10T21:23:47.757Z,6.63
2023-05-10T21:28:49.210Z,7.15
2023-05-10T21:33:50.636Z,7.93
2023-05-10T21:38:52.075Z,7.28
2023-05-10T21:43:53.566Z,8.73
2023-05-10T21:48:55.026Z,9.98
2023-05-10T21:53:56.524Z,12.77
2023-05-10T21:58:57.985Z,12.40
2023-05-10T22:04:00.138Z,12.00
2023-05-10T22:09:01.586Z,13.05
2023-05-10T22:14:03.034Z,13.60
2023-05-10T22:19:04.618Z,14.05
2023-05-10T22:24:06.467Z,13.98
2023-05-10T22:29:07.917Z,16.83
2023-05-10T22:34:09.377Z,17.33
2023-05-10T22:39:10.840Z,16.35
2023-05-10T22:44:12.261Z,17.33
2023-05-10T22:49:13.884Z,17.92
2023-05-10T22:54:15.315Z,18.42
2023-05-10T22:59:16.769Z,20.55
2023-05-10T23:04:18.233Z,20.45
2023-05-10T23:09:19.667Z,17.55
2023-05-10T23:14:21.123Z,19.35
2023-05-10T23:19:22.533Z,20.70
2023-05-10T23:24:23.937Z,22.48
2023-05-10T23:29:25.382Z,20.77
2023-05-10T23:34:26.811Z,22.13
2023-05-10T23:39:28.282Z,19.15
2023-05-10T23:44:29.739Z,18.98
2023-05-10T23:49:31.204Z,19.70
2023-05-10T23:54:32.680Z,19.23
2023-05-10T23:59:34.086Z,19.40
